Time;durP1;ratioP1;P1;durP2;ratioP2;P2;SDS_P1;SDS_P2;PMS_P1;PMS_P2;Temp;Humidity;BMP_temperature;BMP_pressure;BME280_temperature;BME280_humidity;BME280_pressure;Samples;Min_cycle;Max_cycle;Signal;HPM_P1;HPM_P2
2022/01/09 00:02:51;;;;;;;5.13;2.25;;;;;;;-0.53;100.00;96464.22;10425385;28;20143;-56
2022/01/09 00:07:56;;;;;;;6.30;2.40;;;;;;;-0.53;100.00;96451.00;10429656;28;20060;-60
2022/01/09 00:12:59;;;;;;;3.05;2.00;;;;;;;-0.53;100.00;96444.88;10438275;28;20124;-60
2022/01/09 00:18:03;;;;;;;4.95;2.10;;;;;;;-0.55;100.00;96425.69;10437664;28;20179;-58
2022/01/09 00:23:07;;;;;;;4.00;1.85;;;;;;;-0.57;100.00;96417.88;10439553;28;20064;-56
2022/01/09 00:28:10;;;;;;;3.40;1.88;;;;;;;-0.54;100.00;96419.41;10440762;28;20037;-58
2022/01/09 00:33:13;;;;;;;4.22;2.00;;;;;;;-0.52;100.00;96406.84;10441159;28;20072;-57
2022/01/09 00:38:18;;;;;;;4.70;1.70;;;;;;;-0.53;100.00;96394.63;10443105;28;20116;-54
2022/01/09 00:43:21;;;;;;;6.68;1.80;;;;;;;-0.53;100.00;96370.84;10454547;28;20065;-56
2022/01/09 00:48:25;;;;;;;3.72;1.63;;;;;;;-0.54;100.00;96367.34;10445251;28;20052;-58
2022/01/09 00:53:29;;;;;;;2.95;1.90;;;;;;;-0.51;100.00;96342.41;10448227;28;20135;-56
2022/01/09 00:58:32;;;;;;;3.42;1.60;;;;;;;-0.48;100.00;96340.34;10448539;28;20049;-58
2022/01/09 01:03:35;;;;;;;3.67;1.77;;;;;;;-0.38;100.00;96339.47;10449095;28;20077;-56
2022/01/09 01:08:40;;;;;;;2.78;1.70;;;;;;;-0.27;100.00;96319.91;10481255;28;20064;-61
2022/01/09 01:13:43;;;;;;;2.95;2.00;;;;;;;-0.24;100.00;96320.47;10503141;28;20047;-63
2022/01/09 01:18:47;;;;;;;2.92;1.92;;;;;;;-0.19;100.00;96317.41;10460441;28;20056;-61
2022/01/09 01:23:51;;;;;;;2.83;1.65;;;;;;;-0.14;100.00;96317.78;10443832;28;20049;-59
2022/01/09 01:28:54;;;;;;;3.72;2.10;;;;;;;-0.13;100.00;96311.50;10441453;28;20120;-59
2022/01/09 01:33:57;;;;;;;3.33;2.25;;;;;;;-0.09;100.00;96302.31;10441750;28;20460;-62
2022/01/09 01:39:01;;;;;;;5.35;2.53;;;;;;;-0.07;100.00;96295.06;10443385;28;20121;-58
2022/01/09 01:44:09;;;;;;;4.53;2.65;;;;;;;-0.08;100.00;96280.16;10454089;28;20045;-59
2022/01/09 01:49:13;;;;;;;4.53;2.53;;;;;;;-0.04;100.00;96273.56;10442761;28;20077;-59
2022/01/09 01:54:20;;;;;;;4.40;2.70;;;;;;;-0.02;100.00;96261.00;10441951;28;20045;-60
2022/01/09 01:59:23;;;;;;;4.60;2.88;;;;;;;-0.01;100.00;96252.09;10442623;28;20120;-60
2022/01/09 02:04:26;;;;;;;3.80;3.00;;;;;;;0.01;100.00;96246.63;10439894;28;20037;-58
2022/01/09 02:09:31;;;;;;;5.70;3.00;;;;;;;0.02;100.00;96232.44;10441939;28;20102;-55
2022/01/09 02:14:36;;;;;;;5.63;3.40;;;;;;;0.06;100.00;96219.75;10424751;28;20728;-61
2022/01/09 02:19:39;;;;;;;4.97;3.22;;;;;;;0.10;100.00;96216.66;10442694;28;20128;-61
2022/01/09 02:24:44;;;;;;;5.30;3.25;;;;;;;0.12;100.00;96205.91;10441222;28;20068;-55
2022/01/09 02:29:48;;;;;;;3.17;2.75;;;;;;;0.15;100.00;96197.66;10443178;28;20634;-57
2022/01/09 02:34:51;;;;;;;4.72;3.40;;;;;;;0.18;100.00;96199.16;10442645;28;20068;-59
2022/01/09 02:39:56;;;;;;;5.15;3.08;;;;;;;0.22;100.00;96195.25;10441466;28;20498;-57
2022/01/09 02:44:59;;;;;;;3.55;2.80;;;;;;;0.26;100.00;96186.00;10440348;28;20059;-55
2022/01/09 02:50:11;;;;;;;6.40;2.88;;;;;;;0.30;100.00;96167.00;10441253;28;20123;-59
2022/01/09 02:55:16;;;;;;;4.03;2.95;;;;;;;0.35;100.00;96171.88;10437588;28;20155;-57
2022/01/09 03:00:21;;;;;;;5.78;3.55;;;;;;;0.39;100.00;96162.59;10440672;28;20111;-60
2022/01/09 03:05:25;;;;;;;5.65;3.35;;;;;;;0.46;100.00;96160.19;10437642;28;20137;-59
2022/01/09 03:10:29;;;;;;;4.28;3.00;;;;;;;0.55;100.00;96138.06;10439792;28;20079;-59
2022/01/09 03:15:33;;;;;;;4.18;3.30;;;;;;;0.69;100.00;96135.81;10440783;28;20111;-56
2022/01/09 03:20:36;;;;;;;6.50;2.85;;;;;;;0.80;100.00;96126.78;10442544;28;20076;-60
2022/01/09 03:25:41;;;;;;;3.47;2.70;;;;;;;0.86;100.00;96120.84;10440194;28;20122;-57
2022/01/09 03:30:44;;;;;;;3.78;2.80;;;;;;;0.94;100.00;96120.06;10438751;28;20586;-55
2022/01/09 03:35:47;;;;;;;3.75;2.70;;;;;;;1.01;100.00;96124.59;10440958;28;20073;-55
2022/01/09 03:40:52;;;;;;;3.30;2.50;;;;;;;1.00;100.00;96112.31;10439395;28;20048;-56
2022/01/09 03:45:55;;;;;;;3.03;2.40;;;;;;;1.06;100.00;96105.53;10439593;28;20069;-56
2022/01/09 03:50:58;;;;;;;3.20;2.40;;;;;;;1.09;100.00;96097.28;10437418;28;20053;-59
2022/01/09 03:56:05;;;;;;;3.38;2.00;;;;;;;1.13;100.00;96085.34;10440329;28;20519;-53
2022/01/09 04:01:08;;;;;;;2.80;2.25;;;;;;;1.16;100.00;96074.44;10437760;28;20076;-57
2022/01/09 04:06:11;;;;;;;2.85;2.20;;;;;;;1.25;100.00;96077.09;10438803;28;20080;-59
2022/01/09 04:11:19;;;;;;;2.25;2.05;;;;;;;1.31;100.00;96079.13;10439848;28;20073;-55
2022/01/09 04:16:22;;;;;;;3.05;1.75;;;;;;;1.37;100.00;96065.19;10438947;28;20128;-58
2022/01/09 04:21:25;;;;;;;2.80;1.77;;;;;;;1.35;100.00;96073.34;10438928;28;20124;-55
2022/01/09 04:26:30;;;;;;;1.83;1.50;;;;;;;1.35;100.00;96068.03;10439654;28;20127;-58
2022/01/09 04:31:33;;;;;;;1.52;1.42;;;;;;;1.36;100.00;96056.44;10435561;28;20478;-57
2022/01/09 04:36:36;;;;;;;1.48;1.30;;;;;;;1.40;100.00;96054.28;10437688;28;20579;-60
2022/01/09 04:41:40;;;;;;;1.60;1.48;;;;;;;1.37;100.00;96043.97;10440077;28;20045;-58
2022/01/09 04:46:50;;;;;;;1.50;1.40;;;;;;;1.42;100.00;96051.44;10438838;28;20490;-59
2022/01/09 04:51:54;;;;;;;1.58;1.30;;;;;;;1.43;100.00;96047.81;10438969;28;20063;-57
2022/01/09 04:57:00;;;;;;;1.20;1.10;;;;;;;1.45;100.00;96046.66;10438733;28;20036;-60
2022/01/09 05:02:06;;;;;;;1.10;0.85;;;;;;;1.48;100.00;96035.72;10438781;28;20049;-58
2022/01/09 05:07:10;;;;;;;1.08;1.00;;;;;;;1.52;100.00;96046.84;10439181;28;20053;-61
2022/01/09 05:12:14;;;;;;;1.38;0.82;;;;;;;1.54;100.00;96035.06;10437338;28;20081;-58
2022/01/09 05:17:17;;;;;;;0.80;0.80;;;;;;;1.60;100.00;96032.75;10438755;28;20045;-55
2022/01/09 05:22:20;;;;;;;1.42;0.93;;;;;;;1.62;100.00;96026.31;10442104;28;20429;-57
2022/01/09 05:27:27;;;;;;;0.63;0.63;;;;;;;1.64;100.00;96028.78;10444962;28;20767;-59
2022/01/09 05:32:30;;;;;;;1.77;0.57;;;;;;;1.66;100.00;96021.47;10443075;28;20515;-53
2022/01/09 05:37:34;;;;;;;0.88;0.70;;;;;;;1.67;100.00;96021.31;10442945;28;20063;-58
2022/01/09 05:42:38;;;;;;;0.65;0.57;;;;;;;1.70;100.00;96028.13;10445775;28;20049;-54
2022/01/09 05:47:42;;;;;;;1.15;1.05;;;;;;;1.69;100.00;96023.81;10445575;28;20056;-55
2022/01/09 05:52:46;;;;;;;0.60;0.60;;;;;;;1.73;100.00;96022.47;10445863;28;20049;-59
2022/01/09 05:57:51;;;;;;;0.95;0.60;;;;;;;1.77;100.00;96015.84;10446068;28;20190;-57
2022/01/09 06:02:54;;;;;;;0.50;0.50;;;;;;;1.78;100.00;96011.34;10443572;28;20110;-58
2022/01/09 06:07:59;;;;;;;0.40;0.40;;;;;;;1.79;100.00;96019.19;10441118;28;20063;-58
2022/01/09 06:13:04;;;;;;;0.55;0.55;;;;;;;1.81;100.00;96029.63;10442306;28;20048;-57
2022/01/09 06:18:07;;;;;;;0.88;0.57;;;;;;;1.79;100.00;96032.44;10447349;28;20072;-55
2022/01/09 06:23:10;;;;;;;0.52;0.52;;;;;;;1.79;100.00;96034.25;10444958;28;20494;-58
2022/01/09 06:28:15;;;;;;;0.40;0.40;;;;;;;1.79;100.00;96036.91;10443656;28;20049;-59
2022/01/09 06:33:18;;;;;;;0.50;0.50;;;;;;;1.79;100.00;96024.47;10445940;28;20059;-53
2022/01/09 06:38:21;;;;;;;0.65;0.60;;;;;;;1.81;100.00;96029.63;10443325;28;20041;-60
2022/01/09 06:43:26;;;;;;;0.50;0.50;;;;;;;1.79;100.00;96042.22;10441625;28;20075;-62
2022/01/09 06:48:29;;;;;;;2.22;0.60;;;;;;;1.80;100.00;96044.72;10441276;28;20087;-58
2022/01/09 06:53:32;;;;;;;0.60;0.60;;;;;;;1.75;100.00;96047.03;10445167;28;20041;-59
2022/01/09 06:58:37;;;;;;;0.80;0.77;;;;;;;1.72;100.00;96051.84;10444705;28;20068;-54
2022/01/09 07:03:40;;;;;;;0.82;0.63;;;;;;;1.73;100.00;96058.81;10442122;28;20041;-61
2022/01/09 07:08:44;;;;;;;1.20;0.65;;;;;;;1.73;100.00;96072.09;10439609;28;20111;-61
2022/01/09 07:13:49;;;;;;;0.50;0.50;;;;;;;1.76;100.00;96075.25;10437964;28;20045;-56
2022/01/09 07:18:54;;;;;;;0.60;0.60;;;;;;;1.76;100.00;96079.72;10440314;28;20044;-57
2022/01/09 07:23:57;;;;;;;1.20;1.10;;;;;;;1.77;100.00;96086.66;10440583;28;20460;-61
2022/01/09 07:29:07;;;;;;;0.77;0.77;;;;;;;1.79;100.00;96085.53;10431001;28;20045;-55
2022/01/09 07:34:10;;;;;;;0.77;0.77;;;;;;;1.79;100.00;96090.84;10440845;28;20043;-57
2022/01/09 07:39:13;;;;;;;0.80;0.80;;;;;;;1.81;100.00;96101.28;10441357;28;20043;-55
2022/01/09 07:44:18;;;;;;;0.65;0.63;;;;;;;1.83;100.00;96101.97;10442779;28;20439;-58
2022/01/09 07:49:23;;;;;;;0.68;0.60;;;;;;;1.83;100.00;96108.09;10438627;28;20049;-56
2022/01/09 07:54:27;;;;;;;0.80;0.80;;;;;;;1.82;100.00;96106.41;10441588;28;20044;-58
2022/01/09 07:59:31;;;;;;;1.35;0.60;;;;;;;1.83;100.00;96115.22;10433957;28;20057;-60
2022/01/09 08:04:34;;;;;;;0.60;0.60;;;;;;;1.85;100.00;96121.22;10436792;28;20041;-59
2022/01/09 08:09:39;;;;;;;0.73;0.68;;;;;;;1.86;100.00;96136.16;10442012;28;20128;-58
2022/01/09 08:14:45;;;;;;;0.90;0.80;;;;;;;1.85;100.00;96153.88;10441412;28;20041;-58
2022/01/09 08:19:48;;;;;;;1.00;1.00;;;;;;;1.89;100.00;96158.88;10440413;28;20120;-58
2022/01/09 08:24:51;;;;;;;1.00;0.80;;;;;;;1.91;100.00;96173.66;10442968;28;20125;-59
2022/01/09 08:29:55;;;;;;;0.70;0.70;;;;;;;1.91;100.00;96173.66;10469447;28;20056;-62
2022/01/09 08:34:59;;;;;;;0.75;0.75;;;;;;;1.89;100.00;96180.94;10494947;28;20029;-63
2022/01/09 08:40:04;;;;;;;0.80;0.80;;;;;;;1.85;100.00;96183.09;10487978;28;20041;-57
2022/01/09 08:45:10;;;;;;;1.10;0.90;;;;;;;1.89;100.00;96196.88;10433322;28;20037;-63
2022/01/09 08:50:15;;;;;;;0.70;0.70;;;;;;;1.89;100.00;96211.97;10433269;28;20547;-63
2022/01/09 08:55:18;;;;;;;0.70;0.70;;;;;;;1.85;100.00;96212.28;10436669;28;20041;-60
2022/01/09 09:00:23;;;;;;;0.60;0.60;;;;;;;1.89;100.00;96225.25;10442214;28;20390;-61
2022/01/09 09:05:26;;;;;;;0.95;0.90;;;;;;;1.90;100.00;96224.25;10443459;28;20051;-60
2022/01/09 09:10:29;;;;;;;0.60;0.60;;;;;;;1.90;100.00;96235.69;10444309;28;20489;-58
2022/01/09 09:15:34;;;;;;;1.33;0.80;;;;;;;1.95;100.00;96252.00;10443818;28;20129;-59
2022/01/09 09:20:38;;;;;;;1.65;0.90;;;;;;;2.01;100.00;96269.09;10444379;28;20123;-59
2022/01/09 09:25:41;;;;;;;0.90;0.60;;;;;;;2.04;100.00;96258.19;10441873;28;20398;-61
2022/01/09 09:30:46;;;;;;;0.90;0.80;;;;;;;2.09;100.00;96285.06;10444208;28;20037;-59
2022/01/09 09:35:50;;;;;;;0.60;0.60;;;;;;;2.10;100.00;96286.72;10442741;28;20040;-58
2022/01/09 09:40:53;;;;;;;0.60;0.60;;;;;;;2.11;100.00;96296.38;10442719;28;20494;-58
2022/01/09 09:46:00;;;;;;;0.98;0.68;;;;;;;2.19;100.00;96292.06;10443093;28;20118;-59
2022/01/09 09:51:03;;;;;;;0.80;0.80;;;;;;;2.24;100.00;96303.88;10443781;28;20520;-59
2022/01/09 09:56:07;;;;;;;0.80;0.80;;;;;;;2.28;100.00;96301.75;10441144;28;20072;-58
2022/01/09 10:01:23;;;;;;;1.02;0.70;;;;;;;2.30;100.00;96310.34;10443659;28;20048;-61
2022/01/09 10:06:38;;;;;;;0.50;0.50;;;;;;;2.34;100.00;96311.72;10442017;28;20073;-58
2022/01/09 10:11:47;;;;;;;0.50;0.50;;;;;;;2.33;100.00;96325.97;10441464;28;20045;-59
2022/01/09 10:17:11;;;;;;;0.50;0.50;;;;;;;2.35;100.00;96324.00;10497842;22;20055;-58
2022/01/09 10:22:33;;;;;;;0.43;0.43;;;;;;;2.37;100.00;96337.97;10500981;28;20557;-58
2022/01/09 10:27:38;;;;;;;0.50;0.50;;;;;;;2.33;100.00;96357.06;10450786;28;20052;-58
2022/01/09 10:32:43;;;;;;;0.40;0.30;;;;;;;2.27;100.00;96366.50;10462058;28;20132;-58
2022/01/09 10:37:48;;;;;;;0.43;0.43;;;;;;;2.23;100.00;96373.09;10464742;28;20489;-57
2022/01/09 10:43:03;;;;;;;0.45;0.45;;;;;;;2.15;100.00;96385.38;10464598;28;20090;-61
2022/01/09 10:48:10;;;;;;;0.30;0.30;;;;;;;2.05;100.00;96405.91;10454531;28;20508;-55
2022/01/09 10:53:18;;;;;;;0.73;0.30;;;;;;;2.03;100.00;96397.25;10460037;28;20053;-59
2022/01/09 10:58:23;;;;;;;2.28;0.40;;;;;;;2.02;100.00;96413.34;10457005;28;20215;-55
2022/01/09 11:03:28;;;;;;;0.73;0.50;;;;;;;1.96;100.00;96409.50;10457885;28;20036;-59
2022/01/09 11:08:32;;;;;;;0.57;0.50;;;;;;;1.85;100.00;96426.53;10459677;28;20299;-59
2022/01/09 11:13:37;;;;;;;0.50;0.50;;;;;;;1.80;100.00;96439.41;10458441;28;20071;-61
2022/01/09 11:18:43;;;;;;;0.70;0.70;;;;;;;1.76;100.00;96446.06;10456029;28;20461;-59
2022/01/09 11:24:00;;;;;;;0.50;0.50;;;;;;;1.75;100.00;96469.09;10460204;28;20556;-58
2022/01/09 11:29:07;;;;;;;0.30;0.30;;;;;;;1.74;100.00;96490.50;10457607;28;20073;-59
2022/01/09 11:34:23;;;;;;;0.45;0.40;;;;;;;1.74;100.00;96483.34;10449762;28;20053;-63
2022/01/09 11:39:35;;;;;;;0.40;0.40;;;;;;;1.69;100.00;96483.00;10461771;28;20051;-60
2022/01/09 11:44:45;;;;;;;;;;;;;;;1.65;100.00;96495.72;10461335;28;20049;-64
2022/01/09 11:50:09;;;;;;;0.30;0.30;;;;;;;1.65;100.00;96506.31;10464219;28;20028;-64
2022/01/09 11:55:13;;;;;;;0.32;0.28;;;;;;;1.68;100.00;96529.91;10451924;28;20486;-61
2022/01/09 12:00:29;;;;;;;0.32;0.32;;;;;;;1.73;100.00;96532.13;10445949;28;20045;-61
2022/01/09 12:06:03;;;;;;;1.92;0.40;;;;;;;1.76;100.00;96529.16;10445551;28;20536;-61
2022/01/09 12:11:06;;;;;;;0.65;0.50;;;;;;;1.77;100.00;96538.81;10439551;28;20041;-61
2022/01/09 12:16:30;;;;;;;0.30;0.30;;;;;;;1.78;100.00;96551.09;10454523;28;20504;-61
2022/01/09 12:21:51;;;;;;;0.70;0.50;;;;;;;1.79;100.00;96557.22;10443136;28;20055;-61
2022/01/09 12:26:54;;;;;;;0.50;0.50;;;;;;;1.82;100.00;96568.38;10451777;28;20099;-60
2022/01/09 12:31:57;;;;;;;0.50;0.45;;;;;;;1.82;100.00;96592.25;10467149;28;20072;-61
2022/01/09 12:37:07;;;;;;;0.60;0.60;;;;;;;1.79;100.00;96587.28;10464337;28;20128;-60
2022/01/09 12:42:10;;;;;;;1.65;0.70;;;;;;;1.77;100.00;96591.03;10465615;28;20041;-62
2022/01/09 12:47:13;;;;;;;0.60;0.60;;;;;;;1.76;100.00;96602.69;10458122;28;20037;-61
2022/01/09 12:52:22;;;;;;;0.85;0.60;;;;;;;1.72;100.00;96615.38;10451038;28;20067;-61
2022/01/09 12:57:26;;;;;;;0.80;0.65;;;;;;;1.72;100.00;96619.88;10449482;28;20475;-60
2022/01/09 13:02:29;;;;;;;1.55;1.00;;;;;;;1.71;100.00;96634.97;10452058;28;20036;-60
2022/01/09 13:07:34;;;;;;;1.63;1.00;;;;;;;1.74;100.00;96642.63;10451048;28;20056;-61
2022/01/09 13:13:01;;;;;;;1.38;1.00;;;;;;;1.77;100.00;96654.75;10446363;28;20082;-61
2022/01/09 13:18:06;;;;;;;2.15;1.20;;;;;;;1.81;100.00;96662.31;10450274;28;20089;-61
2022/01/09 13:23:13;;;;;;;2.38;1.40;;;;;;;1.90;100.00;96665.84;10447707;28;20045;-59
2022/01/09 13:28:22;;;;;;;3.22;1.55;;;;;;;1.93;100.00;96668.22;10445193;28;20131;-59
2022/01/09 13:33:27;;;;;;;2.47;1.30;;;;;;;2.01;100.00;96672.78;10448489;28;20529;-56
2022/01/09 13:38:31;;;;;;;3.22;1.40;;;;;;;2.05;100.00;96683.94;10447841;28;20446;-58
2022/01/09 13:43:35;;;;;;;3.85;1.45;;;;;;;2.08;100.00;96689.78;10444070;28;20068;-60
2022/01/09 13:48:45;;;;;;;3.67;1.45;;;;;;;2.10;100.00;96719.69;10446492;28;20037;-59
2022/01/09 13:54:07;;;;;;;4.43;1.80;;;;;;;2.09;100.00;96712.69;10442902;28;20041;-59
2022/01/09 13:59:11;;;;;;;3.90;1.65;;;;;;;2.15;100.00;96729.84;10446069;28;20503;-61
2022/01/09 14:04:17;;;;;;;4.30;1.65;;;;;;;2.19;100.00;96730.38;10442292;28;20044;-57
2022/01/09 14:09:28;;;;;;;3.65;1.70;;;;;;;2.20;100.00;96742.69;10448763;28;20045;-58
2022/01/09 14:14:33;;;;;;;4.60;1.98;;;;;;;2.13;100.00;96740.66;10443678;28;20058;-56
2022/01/09 14:19:49;;;;;;;6.45;1.80;;;;;;;2.13;100.00;96750.41;10443377;28;20037;-58
2022/01/09 14:25:03;;;;;;;6.25;2.28;;;;;;;2.14;100.00;96766.22;10441847;28;20052;-61
2022/01/09 14:30:21;;;;;;;4.68;2.17;;;;;;;2.15;100.00;96770.56;10444390;28;20473;-60
2022/01/09 14:35:29;;;;;;;7.28;2.33;;;;;;;2.17;100.00;96778.38;10442785;28;20053;-60
2022/01/09 14:40:35;;;;;;;8.48;2.95;;;;;;;2.18;100.00;96790.66;10443682;28;20051;-58
2022/01/09 14:45:38;;;;;;;6.20;2.40;;;;;;;2.20;100.00;96803.78;10444963;28;20052;-62
2022/01/09 14:50:45;;;;;;;7.32;2.30;;;;;;;2.21;100.00;96808.97;10448154;28;20049;-59
2022/01/09 14:55:51;;;;;;;7.80;2.50;;;;;;;2.20;100.00;96819.72;10450561;28;20464;-61
2022/01/09 15:00:54;;;;;;;10.50;2.70;;;;;;;2.25;100.00;96826.28;10454911;28;20048;-58
2022/01/09 15:05:57;;;;;;;7.50;2.67;;;;;;;2.25;100.00;96823.63;10454772;28;21673;-58
2022/01/09 15:11:02;;;;;;;8.60;2.63;;;;;;;2.21;100.00;96837.34;10450418;28;20059;-56
2022/01/09 15:16:06;;;;;;;7.85;2.85;;;;;;;2.18;100.00;96841.16;10454716;28;20044;-57
2022/01/09 15:21:12;;;;;;;8.30;2.75;;;;;;;2.16;100.00;96853.72;10456267;28;20043;-55
2022/01/09 15:26:19;;;;;;;11.23;3.22;;;;;;;2.12;100.00;96868.28;10452399;28;20036;-55
2022/01/09 15:31:23;;;;;;;9.63;2.60;;;;;;;2.12;100.00;96882.41;10450577;28;20083;-58
2022/01/09 15:36:27;;;;;;;8.30;3.00;;;;;;;2.11;100.00;96878.09;10453280;28;20075;-55
2022/01/09 15:41:32;;;;;;;14.65;3.30;;;;;;;2.12;100.00;96895.69;10456884;28;20094;-59
2022/01/09 15:46:35;;;;;;;8.30;3.00;;;;;;;2.12;100.00;96900.16;10460747;28;20059;-57
2022/01/09 15:51:38;;;;;;;7.88;2.95;;;;;;;2.09;100.00;96909.28;10439605;28;20457;-57
2022/01/09 15:56:43;;;;;;;9.63;3.40;;;;;;;2.09;100.00;96919.88;10441965;28;20043;-58
2022/01/09 16:01:47;;;;;;;9.38;3.33;;;;;;;2.10;100.00;96936.69;10445589;28;20485;-56
2022/01/09 16:06:52;;;;;;;7.90;2.80;;;;;;;2.12;100.00;96937.34;10441621;28;20381;-58
2022/01/09 16:11:59;;;;;;;10.38;3.45;;;;;;;2.13;100.00;96945.19;10452678;28;20048;-57
2022/01/09 16:17:03;;;;;;;8.93;3.53;;;;;;;2.17;100.00;96960.84;10425717;23;20049;-80
2022/01/09 16:22:07;;;;;;;11.50;3.33;;;;;;;2.17;100.00;96968.81;10421126;28;20033;-81
2022/01/09 16:27:12;;;;;;;8.65;3.65;;;;;;;2.14;100.00;96984.06;10432405;28;20042;-81
2022/01/09 16:32:16;;;;;;;5.75;3.10;;;;;;;2.14;100.00;96991.19;10412541;28;20052;-81
2022/01/09 16:37:19;;;;;;;6.00;3.30;;;;;;;2.14;100.00;97002.66;10393037;28;20107;-83
2022/01/09 16:42:24;;;;;;;7.60;3.28;;;;;;;2.14;100.00;97012.44;10398099;28;20054;-81
2022/01/09 16:47:27;;;;;;;7.68;3.10;;;;;;;2.15;100.00;97014.97;10410982;28;20068;-81
2022/01/09 16:52:33;;;;;;;7.38;3.40;;;;;;;2.12;100.00;97036.50;10388003;28;20669;-81
2022/01/09 16:57:37;;;;;;;8.45;3.28;;;;;;;2.12;100.00;97036.50;10396952;28;20382;-85
2022/01/09 17:02:42;;;;;;;8.85;3.72;;;;;;;2.12;100.00;97044.47;10407851;28;20132;-82
2022/01/09 17:07:46;;;;;;;7.40;4.03;;;;;;;2.14;100.00;97045.16;10412643;28;20045;-81
2022/01/09 17:12:52;;;;;;;10.25;4.20;;;;;;;2.11;100.00;97061.38;10391923;28;20051;-82
2022/01/09 17:17:57;;;;;;;7.10;3.80;;;;;;;2.09;100.00;97068.66;10409518;28;20060;-81
2022/01/09 17:23:00;;;;;;;11.13;4.22;;;;;;;2.08;100.00;97082.91;10432802;28;20053;-84
2022/01/09 17:28:05;;;;;;;5.85;3.20;;;;;;;2.09;100.00;97083.78;10409508;28;20425;-84
2022/01/09 17:33:08;;;;;;;10.30;3.20;;;;;;;2.09;100.00;97095.22;10411022;28;20421;-82
2022/01/09 17:38:12;;;;;;;12.52;2.45;;;;;;;2.11;100.00;97092.44;10415653;28;20457;-81
2022/01/09 17:43:16;;;;;;;6.03;2.50;;;;;;;2.17;100.00;97099.84;10425565;28;20037;-85
2022/01/09 17:48:21;;;;;;;6.97;2.70;;;;;;;2.15;100.00;97118.59;10419048;28;20084;-85
2022/01/09 17:53:26;;;;;;;6.32;2.75;;;;;;;2.12;100.00;97105.56;10418091;28;20140;-85
2022/01/09 17:58:32;;;;;;;7.47;2.50;;;;;;;2.11;100.00;97130.47;10417448;28;20081;-85
2022/01/09 18:03:36;;;;;;;5.82;2.75;;;;;;;2.11;100.00;97130.47;10421290;28;20041;-84
2022/01/09 18:08:39;;;;;;;6.25;2.72;;;;;;;2.10;100.00;97139.41;10403192;28;20426;-82
2022/01/09 18:13:44;;;;;;;7.22;2.70;;;;;;;2.09;100.00;97140.38;10406292;28;20524;-82
2022/01/09 18:18:50;;;;;;;5.25;2.53;;;;;;;2.11;100.00;97151.72;10456767;22;20148;-87
2022/01/09 18:23:54;;;;;;;9.95;2.80;;;;;;;2.11;100.00;97157.03;10483412;28;20040;-85
2022/01/09 18:28:59;;;;;;;9.77;3.05;;;;;;;2.15;100.00;97153.13;10467776;28;20083;-86
2022/01/09 18:34:33;;;;;;;8.27;2.70;;;;;;;2.19;100.00;97174.06;10456492;28;20571;-87
2022/01/09 18:39:44;;;;;;;7.00;3.05;;;;;;;2.21;100.00;97177.44;10451476;28;20055;-87
2022/01/09 18:44:55;;;;;;;9.18;3.05;;;;;;;2.22;100.00;97179.13;10451693;28;20088;-88
2022/01/09 18:50:02;;;;;;;6.95;3.10;;;;;;;2.22;100.00;97189.75;10471269;28;20073;-87
2022/01/09 18:55:07;;;;;;;6.70;2.63;;;;;;;2.22;100.00;97190.59;10441397;28;20104;-87
2022/01/09 19:00:15;;;;;;;6.40;2.75;;;;;;;2.20;100.00;97192.56;10458367;28;20041;-87
2022/01/09 19:05:18;;;;;;;6.20;2.65;;;;;;;2.24;100.00;97199.25;10446410;28;20060;-86
2022/01/09 23:40:59;;;;;;;10.05;4.07;;;;;;;1.91;100.00;97577.63;10475829;28;20036;-88
2022/01/09 23:46:32;;;;;;;8.48;4.28;;;;;;;1.93;100.00;97591.66;10437132;28;20067;-87
2022/01/09 23:51:40;;;;;;;6.97;3.88;;;;;;;1.97;100.00;97611.66;10425256;28;20052;-87
2022/01/09 23:56:43;;;;;;;11.48;4.38;;;;;;;2.04;100.00;97623.47;10397822;28;20521;-87
